createdAt,value
2024-01-25T00:01:27.662Z,79.28
2024-01-25T00:03:56.218Z,79.23
2024-01-25T00:06:23.345Z,79.29
2024-01-25T00:08:50.897Z,79.23
2024-01-25T00:11:18.757Z,79.36
2024-01-25T00:13:46.298Z,78.66
2024-01-25T00:16:13.521Z,78.43
2024-01-25T00:18:41.687Z,78.16
2024-01-25T00:21:09.357Z,78.05
2024-01-25T00:23:36.980Z,76.85
2024-01-25T00:26:04.370Z,76.99
2024-01-25T00:28:31.933Z,77.18
2024-01-25T00:30:59.534Z,77.24
2024-01-25T00:33:26.931Z,76.49
2024-01-25T00:35:54.780Z,76.42
2024-01-25T00:38:22.704Z,76.42
2024-01-25T00:40:50.442Z,76.86
2024-01-25T00:43:17.853Z,77.41
2024-01-25T00:45:45.784Z,77.60
2024-01-25T00:48:14.108Z,77.91
2024-01-25T00:50:42.041Z,77.66
2024-01-25T00:53:09.703Z,77.81
2024-01-25T00:55:37.803Z,77.75
2024-01-25T00:58:05.364Z,77.89
2024-01-25T01:00:33.177Z,77.54
2024-01-25T01:03:01.680Z,77.76
2024-01-25T01:05:29.605Z,77.97
2024-01-25T01:07:58.121Z,77.21
2024-01-25T01:10:26.721Z,77.16
2024-01-25T01:12:55.472Z,77.25
2024-01-25T01:15:23.121Z,76.94
2024-01-25T01:17:50.591Z,77.16
2024-01-25T01:20:18.085Z,77.12
2024-01-25T01:22:46.379Z,77.62
2024-01-25T01:25:13.793Z,77.63
2024-01-25T01:27:48.407Z,77.74
2024-01-25T01:30:16.235Z,78.09
2024-01-25T01:32:47.495Z,78.03
2024-01-25T01:35:14.644Z,77.79
2024-01-25T01:37:43.243Z,77.25
2024-01-25T01:40:11.234Z,77.65
2024-01-25T01:42:38.842Z,77.18
2024-01-25T01:45:07.019Z,77.00
2024-01-25T01:47:36.178Z,77.14
2024-01-25T01:50:03.682Z,77.03
2024-01-25T01:52:31.861Z,77.11
2024-01-25T01:54:59.486Z,76.98
2024-01-25T01:57:28.023Z,76.80
2024-01-25T01:59:55.796Z,76.54
2024-01-25T02:02:25.056Z,76.47
2024-01-25T02:04:53.084Z,76.41
2024-01-25T02:07:20.172Z,76.28
2024-01-25T02:09:47.734Z,76.17
2024-01-25T02:12:18.376Z,75.65
2024-01-25T02:14:46.608Z,75.31
2024-01-25T02:17:14.561Z,74.60
2024-01-25T02:19:42.073Z,74.42
2024-01-25T02:22:09.473Z,74.78
2024-01-25T02:24:37.685Z,74.83
2024-01-25T02:27:06.190Z,75.04
2024-01-25T02:29:36.490Z,75.28
2024-01-25T02:32:04.732Z,75.62
2024-01-25T02:34:32.074Z,76.13
2024-01-25T02:36:59.662Z,76.29
2024-01-25T02:39:26.794Z,76.13
2024-01-25T02:41:54.591Z,76.16
2024-01-25T02:44:21.554Z,76.30
2024-01-25T02:46:49.092Z,76.49
2024-01-25T02:49:17.206Z,76.83
2024-01-25T02:51:44.554Z,77.08
2024-01-25T02:54:11.627Z,77.08
2024-01-25T02:56:38.978Z,77.56
2024-01-25T02:59:05.997Z,77.88
2024-01-25T03:01:46.104Z,78.47
2024-01-25T03:04:14.826Z,79.05
2024-01-25T03:06:42.169Z,79.74
2024-01-25T03:09:09.299Z,80.53
2024-01-25T03:11:36.592Z,81.22
2024-01-25T03:14:03.620Z,81.49
2024-01-25T03:16:31.424Z,81.76
2024-01-25T03:18:58.915Z,82.00
2024-01-25T03:21:26.495Z,82.41
2024-01-25T03:23:53.549Z,82.88
2024-01-25T03:26:20.824Z,83.00
2024-01-25T03:28:48.504Z,83.39
2024-01-25T03:31:16.533Z,83.92
2024-01-25T03:33:44.100Z,84.26
2024-01-25T03:36:14.976Z,84.46
2024-01-25T03:38:42.821Z,84.74
2024-01-25T03:41:10.462Z,84.88
2024-01-25T03:43:43.035Z,84.96
2024-01-25T03:46:14.492Z,85.11
2024-01-25T03:48:41.936Z,85.22
2024-01-25T03:51:09.213Z,85.27
2024-01-25T03:53:36.819Z,85.16
2024-01-25T03:56:05.050Z,85.38
2024-01-25T03:58:32.259Z,85.54
2024-01-25T04:01:00.089Z,85.55
2024-01-25T04:03:27.574Z,85.67
2024-01-25T04:05:54.678Z,85.72
2024-01-25T04:08:21.771Z,85.56
2024-01-25T04:10:49.008Z,85.70
2024-01-25T04:13:19.426Z,85.36
2024-01-25T04:15:47.934Z,85.21
2024-01-25T04:18:16.884Z,85.12
2024-01-25T04:20:45.067Z,84.87
2024-01-25T04:23:12.274Z,84.82
2024-01-25T04:25:39.637Z,84.69
2024-01-25T04:28:06.837Z,84.26
2024-01-25T04:30:34.134Z,84.31
2024-01-25T04:33:01.752Z,84.23
2024-01-25T04:35:29.069Z,84.19
2024-01-25T04:37:56.177Z,83.84
2024-01-25T04:40:23.753Z,83.64
2024-01-25T04:42:50.937Z,83.41
2024-01-25T04:45:18.056Z,83.50
2024-01-25T04:47:45.335Z,83.60
2024-01-25T04:50:12.530Z,83.74
2024-01-25T04:52:39.610Z,83.72
2024-01-25T04:55:07.108Z,83.71
2024-01-25T04:57:36.352Z,83.52
2024-01-25T05:00:05.588Z,83.80
2024-01-25T05:02:34.876Z,83.74
2024-01-25T05:05:02.107Z,84.21
2024-01-25T05:07:33.338Z,83.80
2024-01-25T05:10:01.013Z,83.10
2024-01-25T05:12:30.408Z,83.37
2024-01-25T05:14:57.463Z,83.46
2024-01-25T05:17:25.538Z,83.50
2024-01-25T05:19:57.101Z,83.87
2024-01-25T05:22:24.529Z,83.69
2024-01-25T05:24:54.304Z,83.41
2024-01-25T05:27:21.347Z,83.57
2024-01-25T05:29:49.316Z,83.41
2024-01-25T05:32:16.291Z,83.50
2024-01-25T05:34:44.031Z,83.42
2024-01-25T05:37:13.938Z,83.59
2024-01-25T05:39:43.925Z,83.87
2024-01-25T05:42:11.790Z,83.78
2024-01-25T05:44:38.805Z,83.78
2024-01-25T05:47:06.241Z,83.93
2024-01-25T05:49:33.779Z,84.07
2024-01-25T05:52:06.774Z,84.26
2024-01-25T05:54:36.990Z,84.34
2024-01-25T05:57:05.145Z,84.26
2024-01-25T05:59:34.806Z,84.32
2024-01-25T06:02:05.550Z,84.17
2024-01-25T06:04:33.703Z,84.13
2024-01-25T06:07:03.747Z,84.12
2024-01-25T06:09:34.212Z,83.86
2024-01-25T06:12:02.014Z,83.71
2024-01-25T06:14:29.619Z,83.58
2024-01-25T06:16:57.686Z,83.52
2024-01-25T06:19:25.044Z,83.27
2024-01-25T06:21:52.912Z,83.05
2024-01-25T06:24:20.375Z,82.62
2024-01-25T06:26:47.608Z,82.78
2024-01-25T06:29:15.544Z,82.43
2024-01-25T06:31:44.914Z,81.68
2024-01-25T06:34:15.203Z,81.07
2024-01-25T06:36:51.993Z,80.06
2024-01-25T06:39:19.624Z,79.44
2024-01-25T06:41:46.635Z,78.77
2024-01-25T06:44:14.110Z,79.17
2024-01-25T06:46:41.433Z,78.16
2024-01-25T06:49:09.070Z,77.67
2024-01-25T06:51:37.791Z,76.82
2024-01-25T06:54:05.198Z,76.42
2024-01-25T06:56:32.706Z,76.50
2024-01-25T06:58:59.839Z,75.57
2024-01-25T07:01:29.376Z,75.81
2024-01-25T07:03:56.974Z,75.76
2024-01-25T07:06:25.064Z,75.26
2024-01-25T07:08:54.537Z,75.03
2024-01-25T07:11:22.200Z,74.59
2024-01-25T07:13:49.275Z,74.73
2024-01-25T07:16:20.647Z,74.78
2024-01-25T07:18:48.403Z,74.87
2024-01-25T07:21:16.184Z,75.00
2024-01-25T07:23:46.837Z,75.17
2024-01-25T07:26:20.146Z,75.08
2024-01-25T07:28:47.995Z,75.01
2024-01-25T07:31:16.927Z,75.45
2024-01-25T07:33:44.214Z,75.82
2024-01-25T07:36:12.080Z,75.98
2024-01-25T07:38:39.256Z,75.83
2024-01-25T07:41:06.625Z,76.14
2024-01-25T07:43:34.479Z,76.11
2024-01-25T07:46:01.765Z,76.23
2024-01-25T07:48:29.420Z,75.79
2024-01-25T07:51:12.767Z,76.21
2024-01-25T07:53:43.803Z,74.37
2024-01-25T07:56:12.087Z,73.66
2024-01-25T07:58:42.122Z,73.10
2024-01-25T08:01:10.746Z,72.95
2024-01-25T08:03:41.237Z,72.66
2024-01-25T08:06:08.993Z,72.43
2024-01-25T08:08:36.483Z,71.99
2024-01-25T08:11:05.426Z,72.38
2024-01-25T08:13:35.635Z,72.58
2024-01-25T08:16:03.559Z,71.36
2024-01-25T08:18:32.431Z,70.25
2024-01-25T08:21:01.970Z,70.37
2024-01-25T08:23:29.611Z,70.35
2024-01-25T08:25:56.564Z,70.53
2024-01-25T08:28:23.872Z,70.53
2024-01-25T08:30:51.472Z,70.50
2024-01-25T08:33:18.573Z,71.16
2024-01-25T08:35:48.454Z,70.92
2024-01-25T08:38:19.476Z,70.41
2024-01-25T08:40:47.162Z,70.08
2024-01-25T08:43:14.202Z,69.50
2024-01-25T08:45:41.490Z,69.25
2024-01-25T08:48:10.192Z,68.68
2024-01-25T08:50:38.145Z,69.07
2024-01-25T08:53:06.334Z,68.40
2024-01-25T08:55:33.813Z,68.19
2024-01-25T08:58:01.191Z,67.51
2024-01-25T09:00:28.872Z,67.08
2024-01-25T09:02:56.381Z,67.10
2024-01-25T09:05:23.625Z,66.96
2024-01-25T09:07:53.162Z,66.77
2024-01-25T09:10:20.358Z,67.14
2024-01-25T09:12:47.389Z,67.33
2024-01-25T09:15:14.847Z,67.19
2024-01-25T09:17:46.543Z,68.51
2024-01-25T09:20:17.215Z,67.50
2024-01-25T09:22:47.328Z,66.68
2024-01-25T09:25:14.531Z,67.41
2024-01-25T09:27:42.154Z,67.16
2024-01-25T09:30:11.072Z,66.32
2024-01-25T09:32:38.324Z,65.56
2024-01-25T09:35:06.713Z,65.96
2024-01-25T09:37:34.691Z,65.25
2024-01-25T09:40:04.346Z,63.88
2024-01-25T09:42:31.656Z,64.66
2024-01-25T09:44:59.805Z,63.97
2024-01-25T09:47:29.488Z,63.52
2024-01-25T09:49:56.801Z,62.79
2024-01-25T09:52:27.454Z,62.47
2024-01-25T09:54:56.330Z,61.63
2024-01-25T09:57:25.771Z,61.56
2024-01-25T09:59:55.074Z,62.06
2024-01-25T10:02:22.915Z,62.23
2024-01-25T10:04:55.279Z,61.72
2024-01-25T10:07:43.147Z,61.39
2024-01-25T10:10:11.831Z,62.77
2024-01-25T10:12:42.470Z,62.89
2024-01-25T10:15:12.482Z,63.63
2024-01-25T10:20:15.846Z,63.19
2024-01-25T10:22:45.556Z,62.33
2024-01-25T10:25:15.087Z,62.21
2024-01-25T10:27:43.566Z,62.05
2024-01-25T10:30:12.039Z,60.69
2024-01-25T10:32:40.735Z,62.17
2024-01-25T10:35:09.756Z,61.64
2024-01-25T10:37:40.080Z,61.99
2024-01-25T10:40:11.081Z,61.28
2024-01-25T10:42:42.791Z,62.07
2024-01-25T10:45:10.745Z,65.13
2024-01-25T10:47:42.179Z,61.41
2024-01-25T10:50:19.039Z,62.39
2024-01-25T10:52:47.523Z,62.04
2024-01-25T10:55:17.769Z,62.48
2024-01-25T10:57:46.625Z,61.96
2024-01-25T11:00:17.511Z,61.13
2024-01-25T11:02:46.995Z,61.37
2024-01-25T11:05:20.168Z,62.44
2024-01-25T11:07:49.730Z,62.27
2024-01-25T11:10:22.508Z,61.09
2024-01-25T11:12:56.269Z,62.58
2024-01-25T11:15:31.100Z,63.55
2024-01-25T11:18:00.090Z,62.77
2024-01-25T11:20:29.183Z,60.65
2024-01-25T11:23:02.494Z,61.61
2024-01-25T11:25:31.815Z,60.79
2024-01-25T11:28:00.444Z,61.55
2024-01-25T11:30:29.852Z,60.66
2024-01-25T11:32:57.678Z,60.38
2024-01-25T11:35:26.681Z,60.95
2024-01-25T11:37:56.684Z,60.84
2024-01-25T11:40:24.046Z,62.50
2024-01-25T11:42:51.435Z,61.50
2024-01-25T11:45:18.698Z,60.83
2024-01-25T11:47:46.662Z,61.71
2024-01-25T11:50:14.899Z,61.70
2024-01-25T11:52:42.656Z,62.72
2024-01-25T11:55:14.084Z,63.94
2024-01-25T11:57:42.774Z,61.81
2024-01-25T12:00:14.838Z,60.82
2024-01-25T12:02:43.434Z,60.76
2024-01-25T12:05:11.914Z,60.44
2024-01-25T12:07:40.892Z,60.77
2024-01-25T12:10:11.806Z,60.74
2024-01-25T12:12:40.267Z,61.09
2024-01-25T12:15:11.263Z,60.48
2024-01-25T12:17:43.812Z,59.56
2024-01-25T12:20:13.172Z,59.37
2024-01-25T12:22:41.480Z,58.72
2024-01-25T12:25:13.823Z,57.38
2024-01-25T12:27:47.763Z,56.98
2024-01-25T12:30:15.044Z,58.03
2024-01-25T12:32:42.379Z,57.55
2024-01-25T12:35:10.347Z,57.47
2024-01-25T12:37:39.473Z,56.25
2024-01-25T12:40:09.992Z,57.49
2024-01-25T12:42:37.828Z,57.18
2024-01-25T12:45:05.901Z,56.54
2024-01-25T12:47:35.306Z,55.46
2024-01-25T12:50:04.221Z,55.80
2024-01-25T12:52:32.109Z,55.58
2024-01-25T12:55:04.134Z,56.98
2024-01-25T12:57:32.425Z,56.40
2024-01-25T13:00:00.574Z,57.70
2024-01-25T13:02:29.493Z,57.31
2024-01-25T13:04:56.808Z,57.17
2024-01-25T13:07:25.353Z,57.70
2024-01-25T13:09:54.049Z,59.02
2024-01-25T13:12:22.028Z,57.72
2024-01-25T13:14:49.309Z,59.26
2024-01-25T13:17:16.353Z,57.96
2024-01-25T13:19:44.111Z,56.42
2024-01-25T13:22:11.508Z,56.77
2024-01-25T13:24:44.850Z,57.09
2024-01-25T13:27:15.019Z,56.58
2024-01-25T13:29:42.219Z,56.64
2024-01-25T13:32:10.162Z,56.41
2024-01-25T13:34:37.979Z,56.53
2024-01-25T13:37:05.244Z,57.29
2024-01-25T13:39:34.131Z,57.74
2024-01-25T13:42:02.196Z,57.75
2024-01-25T13:44:29.199Z,58.07
2024-01-25T13:46:57.067Z,57.76
2024-01-25T13:49:24.512Z,58.26
2024-01-25T13:51:51.669Z,58.09
2024-01-25T13:54:19.267Z,57.81
2024-01-25T13:56:46.646Z,58.17
2024-01-25T13:59:13.656Z,58.32
2024-01-25T14:01:45.911Z,59.32
2024-01-25T14:04:13.747Z,58.94
2024-01-25T14:06:40.973Z,58.78
2024-01-25T14:09:08.194Z,58.95
2024-01-25T14:11:36.811Z,58.41
2024-01-25T14:14:03.904Z,58.17
2024-01-25T14:16:33.200Z,58.05
2024-01-25T14:19:00.709Z,58.54
2024-01-25T14:21:28.025Z,58.05
2024-01-25T14:23:57.135Z,57.64
2024-01-25T14:26:24.487Z,57.59
2024-01-25T14:28:51.569Z,57.39
2024-01-25T14:31:20.303Z,57.48
2024-01-25T14:33:47.862Z,57.15
2024-01-25T14:36:15.535Z,57.54
2024-01-25T14:38:42.861Z,57.32
2024-01-25T14:41:11.589Z,58.59
2024-01-25T14:43:40.102Z,56.50
2024-01-25T14:46:08.830Z,56.84
2024-01-25T14:48:36.528Z,58.84
2024-01-25T14:51:03.697Z,57.03
2024-01-25T14:53:31.324Z,57.06
2024-01-25T14:55:58.580Z,57.02
2024-01-25T14:58:25.696Z,56.87
2024-01-25T15:00:53.201Z,57.32
2024-01-25T15:03:21.010Z,57.65
2024-01-25T15:05:48.270Z,57.70
2024-01-25T15:08:15.917Z,58.19
2024-01-25T15:10:43.763Z,57.84
2024-01-25T15:13:12.149Z,58.52
2024-01-25T15:15:39.740Z,59.06
2024-01-25T15:18:07.650Z,59.10
2024-01-25T15:20:37.031Z,59.00
2024-01-25T15:23:04.621Z,59.25
2024-01-25T15:25:31.940Z,59.40
2024-01-25T15:27:59.076Z,60.11
2024-01-25T15:30:26.331Z,59.93
2024-01-25T15:32:53.734Z,60.08
2024-01-25T15:35:27.646Z,60.05
2024-01-25T15:37:55.507Z,59.97
2024-01-25T15:40:23.260Z,59.95
2024-01-25T15:42:53.293Z,60.24
2024-01-25T15:45:21.981Z,60.16
2024-01-25T15:47:49.473Z,59.93
2024-01-25T15:50:20.167Z,60.28
2024-01-25T15:52:48.661Z,60.32
2024-01-25T15:55:15.782Z,60.87
2024-01-25T15:57:42.909Z,61.33
2024-01-25T16:00:13.223Z,60.67
2024-01-25T16:02:40.536Z,60.98
2024-01-25T16:05:07.893Z,61.66
2024-01-25T16:07:34.963Z,61.76
2024-01-25T16:10:04.413Z,61.30
2024-01-25T16:12:31.690Z,62.12
2024-01-25T16:14:59.899Z,61.73
2024-01-25T16:17:27.351Z,61.79
2024-01-25T16:19:54.712Z,61.92
2024-01-25T16:22:21.769Z,61.55
2024-01-25T16:24:49.542Z,61.72
2024-01-25T16:27:16.733Z,62.52
2024-01-25T16:29:43.936Z,62.58
2024-01-25T16:32:11.740Z,61.85
2024-01-25T16:34:38.881Z,62.19
2024-01-25T16:37:06.445Z,62.43
2024-01-25T16:39:34.190Z,62.73
2024-01-25T16:42:01.434Z,62.66
2024-01-25T16:44:28.502Z,62.71
2024-01-25T16:46:58.236Z,62.46
2024-01-25T16:49:25.493Z,62.27
2024-01-25T16:51:52.721Z,62.50
2024-01-25T16:54:20.506Z,62.70
2024-01-25T16:56:49.686Z,62.83
2024-01-25T16:59:18.710Z,62.47
2024-01-25T17:01:46.111Z,62.30
2024-01-25T17:04:13.896Z,62.78
2024-01-25T17:06:42.820Z,62.17
2024-01-25T17:09:10.558Z,62.66
2024-01-25T17:11:39.128Z,62.06
2024-01-25T17:14:06.488Z,62.52
2024-01-25T17:16:33.836Z,62.38
2024-01-25T17:19:01.110Z,62.42
2024-01-25T17:21:28.904Z,62.56
2024-01-25T17:23:58.219Z,62.36
2024-01-25T17:26:25.572Z,61.75
2024-01-25T17:28:54.686Z,62.02
2024-01-25T17:31:25.870Z,62.32
2024-01-25T17:33:52.941Z,62.11
2024-01-25T17:36:20.058Z,62.43
2024-01-25T17:38:47.660Z,62.28
2024-01-25T17:41:14.694Z,62.83
2024-01-25T17:43:43.349Z,62.89
2024-01-25T17:46:10.954Z,62.90
2024-01-25T17:48:43.478Z,62.52
2024-01-25T17:51:10.845Z,62.56
2024-01-25T17:53:37.860Z,62.50
2024-01-25T17:56:06.163Z,62.42
2024-01-25T17:58:34.621Z,62.75
2024-01-25T18:01:01.737Z,62.01
2024-01-25T18:03:29.490Z,62.49
2024-01-25T18:05:56.520Z,62.13
2024-01-25T18:08:23.831Z,62.12
2024-01-25T18:10:56.314Z,62.24
2024-01-25T18:13:24.346Z,63.12
2024-01-25T18:15:53.612Z,62.81
2024-01-25T18:18:20.813Z,62.51
2024-01-25T18:20:49.525Z,62.40
2024-01-25T18:23:16.818Z,61.95
2024-01-25T18:25:43.857Z,62.37
2024-01-25T18:28:11.778Z,62.30
2024-01-25T18:30:40.272Z,62.39
2024-01-25T18:33:09.131Z,62.08
2024-01-25T18:35:36.190Z,63.27
2024-01-25T18:38:03.580Z,62.40
2024-01-25T18:40:30.662Z,62.39
2024-01-25T18:42:57.738Z,62.21
2024-01-25T18:45:25.237Z,63.27
2024-01-25T18:47:52.365Z,62.51
2024-01-25T18:50:19.836Z,63.10
2024-01-25T18:52:47.191Z,61.85
2024-01-25T18:55:14.915Z,61.92
2024-01-25T18:57:42.215Z,62.40
2024-01-25T19:00:10.280Z,62.79
2024-01-25T19:02:37.920Z,61.90
2024-01-25T19:05:06.106Z,61.71
2024-01-25T19:07:38.561Z,62.29
2024-01-25T19:10:08.270Z,62.23
2024-01-25T19:12:38.930Z,62.90
2024-01-25T19:15:09.707Z,62.21
2024-01-25T19:17:52.036Z,62.95
2024-01-25T19:20:19.708Z,65.50
2024-01-25T19:22:48.460Z,63.26
2024-01-25T19:25:16.397Z,63.07
2024-01-25T19:27:44.411Z,63.26
2024-01-25T19:30:12.819Z,63.25
2024-01-25T19:32:41.618Z,63.61
2024-01-25T19:35:08.946Z,63.77
2024-01-25T19:37:36.308Z,63.95
2024-01-25T19:40:03.956Z,64.00
2024-01-25T19:42:31.384Z,64.40
2024-01-25T19:44:59.152Z,64.66
2024-01-25T19:47:26.958Z,64.70
2024-01-25T19:49:54.282Z,65.11
2024-01-25T19:52:22.203Z,64.95
2024-01-25T19:54:49.416Z,65.01
2024-01-25T19:57:17.229Z,65.03
2024-01-25T19:59:45.819Z,65.04
2024-01-25T20:02:13.184Z,65.42
2024-01-25T20:04:41.353Z,65.48
2024-01-25T20:07:09.209Z,65.50
2024-01-25T20:09:36.477Z,65.63
2024-01-25T20:12:04.592Z,65.42
2024-01-25T20:14:33.066Z,65.59
2024-01-25T20:17:05.663Z,65.46
2024-01-25T20:19:33.175Z,65.83
2024-01-25T20:22:01.626Z,65.43
2024-01-25T20:24:29.241Z,65.56
2024-01-25T20:26:58.793Z,65.82
2024-01-25T20:29:25.832Z,65.94
2024-01-25T20:31:53.587Z,66.32
2024-01-25T20:34:20.974Z,65.79
2024-01-25T20:36:48.155Z,66.14
2024-01-25T20:39:15.721Z,66.39
2024-01-25T20:41:45.955Z,66.83
2024-01-25T20:44:12.977Z,66.89
2024-01-25T20:46:40.090Z,66.71
2024-01-25T20:49:10.536Z,66.87
2024-01-25T20:51:38.044Z,67.00
2024-01-25T20:54:05.405Z,67.10
2024-01-25T20:56:32.855Z,67.07
2024-01-25T20:59:00.084Z,67.28
2024-01-25T21:01:28.410Z,67.55
2024-01-25T21:03:56.089Z,67.34
2024-01-25T21:06:24.024Z,67.94
2024-01-25T21:08:51.254Z,67.71
2024-01-25T21:11:18.925Z,67.69
2024-01-25T21:13:49.655Z,68.04
2024-01-25T21:16:17.722Z,67.92
2024-01-25T21:18:45.057Z,67.96
2024-01-25T21:21:16.430Z,67.63
2024-01-25T21:23:44.278Z,68.10
2024-01-25T21:26:14.995Z,68.11
2024-01-25T21:28:42.367Z,68.00
2024-01-25T21:31:10.626Z,68.02
2024-01-25T21:33:38.082Z,68.48
2024-01-25T21:36:05.674Z,67.95
2024-01-25T21:38:34.063Z,67.92
2024-01-25T21:41:01.349Z,68.11
2024-01-25T21:43:28.944Z,68.54
2024-01-25T21:45:56.556Z,68.48
2024-01-25T21:48:24.155Z,68.59
2024-01-25T21:50:51.272Z,68.31
2024-01-25T21:53:18.886Z,68.47
2024-01-25T21:55:46.815Z,68.01
2024-01-25T21:58:14.297Z,69.20
2024-01-25T22:00:42.867Z,68.40
2024-01-25T22:03:10.568Z,68.71
2024-01-25T22:05:38.254Z,67.85
2024-01-25T22:08:06.038Z,69.61
2024-01-25T22:10:33.330Z,67.59
2024-01-25T22:13:00.761Z,68.69
2024-01-25T22:15:28.433Z,67.92
2024-01-25T22:17:55.843Z,67.44
2024-01-25T22:20:23.023Z,67.81
2024-01-25T22:22:52.319Z,68.05
2024-01-25T22:25:21.225Z,67.55
2024-01-25T22:27:48.347Z,69.28
2024-01-25T22:30:18.988Z,69.00
2024-01-25T22:32:47.488Z,70.65
2024-01-25T22:35:15.237Z,69.60
2024-01-25T22:37:42.335Z,69.68
2024-01-25T22:40:14.204Z,70.50
2024-01-25T22:42:41.223Z,69.71
2024-01-25T22:45:09.337Z,70.78
2024-01-25T22:47:37.140Z,72.79
2024-01-25T22:50:04.792Z,74.33
2024-01-25T22:52:31.905Z,70.86
2024-01-25T22:54:59.384Z,70.97
2024-01-25T22:57:28.440Z,71.52
2024-01-25T22:59:55.927Z,68.80
2024-01-25T23:02:23.552Z,70.04
2024-01-25T23:04:51.110Z,70.29
2024-01-25T23:07:18.885Z,69.92
2024-01-25T23:09:46.409Z,69.51
2024-01-25T23:12:14.087Z,72.63
2024-01-25T23:14:44.464Z,70.32
2024-01-25T23:17:12.095Z,68.34
2024-01-25T23:19:39.713Z,70.05
2024-01-25T23:22:08.375Z,72.30
2024-01-25T23:24:37.488Z,72.03
2024-01-25T23:27:04.809Z,72.44
2024-01-25T23:29:32.946Z,72.35
2024-01-25T23:32:02.116Z,72.83
2024-01-25T23:34:29.225Z,73.53
2024-01-25T23:36:56.329Z,73.81
2024-01-25T23:39:23.728Z,74.14
2024-01-25T23:41:50.823Z,74.33
2024-01-25T23:44:19.232Z,74.43
2024-01-25T23:46:46.778Z,74.23
2024-01-25T23:49:16.943Z,74.65
2024-01-25T23:51:44.867Z,75.28
2024-01-25T23:54:13.628Z,76.01
2024-01-25T23:56:42.574Z,76.54
2024-01-25T23:59:11.384Z,76.84
